createdAt,value
2018-11-02T00:01:20.119Z,3.77
2018-11-02T00:03:48.320Z,2.35
2018-11-02T00:06:16.570Z,2.50
2018-11-02T00:08:44.863Z,2.40
2018-11-02T00:11:13.089Z,2.90
2018-11-02T00:13:41.676Z,3.75
2018-11-02T00:16:10.049Z,2.80
2018-11-02T00:18:38.260Z,2.60
2018-11-02T00:21:06.517Z,2.30
2018-11-02T00:23:34.772Z,2.35
2018-11-02T00:26:03.109Z,3.05
2018-11-02T00:28:31.393Z,3.22
2018-11-02T00:30:59.669Z,3.00
2018-11-02T00:33:27.830Z,2.70
2018-11-02T00:35:56.053Z,2.55
2018-11-02T00:38:24.281Z,3.10
2018-11-02T00:40:52.479Z,4.42
2018-11-02T00:43:20.763Z,1.90
2018-11-02T00:45:49.077Z,2.58
2018-11-02T00:48:17.307Z,2.00
2018-11-02T00:50:45.535Z,3.05
2018-11-02T00:53:13.812Z,2.12
2018-11-02T00:55:42.043Z,2.30
2018-11-02T00:58:10.344Z,1.90
2018-11-02T01:00:38.579Z,2.30
2018-11-02T01:03:06.820Z,2.92
2018-11-02T01:05:35.103Z,3.05
2018-11-02T01:08:03.408Z,2.42
2018-11-02T01:10:31.621Z,3.60
2018-11-02T01:13:00.271Z,2.40
2018-11-02T01:15:28.457Z,2.33
2018-11-02T01:17:56.648Z,3.40
2018-11-02T01:20:25.314Z,2.72
2018-11-02T01:22:53.640Z,3.95
2018-11-02T01:25:21.868Z,2.30
2018-11-02T01:27:50.127Z,2.50
2018-11-02T01:30:18.415Z,2.95
2018-11-02T01:32:46.635Z,2.30
2018-11-02T01:35:14.834Z,2.52
2018-11-02T01:37:43.029Z,2.70
2018-11-02T01:40:11.262Z,2.22
2018-11-02T01:42:39.439Z,1.40
2018-11-02T01:45:08.009Z,1.37
2018-11-02T01:47:36.272Z,1.20
2018-11-02T01:50:05.259Z,1.52
2018-11-02T01:52:33.499Z,2.77
2018-11-02T01:55:02.660Z,1.60
2018-11-02T01:57:30.881Z,1.40
2018-11-02T01:59:59.125Z,1.12
2018-11-02T02:02:27.342Z,1.55
2018-11-02T02:04:55.571Z,1.75
2018-11-02T02:07:23.923Z,1.52
2018-11-02T02:09:52.253Z,1.20
2018-11-02T02:12:20.716Z,1.40
2018-11-02T02:14:48.928Z,2.33
2018-11-02T02:17:17.115Z,1.50
2018-11-02T02:19:45.447Z,1.62
2018-11-02T02:22:13.672Z,1.92
2018-11-02T02:24:41.912Z,1.98
2018-11-02T02:27:10.104Z,2.00
2018-11-02T02:29:38.351Z,2.15
2018-11-02T02:32:06.640Z,1.62
2018-11-02T02:34:34.881Z,1.50
2018-11-02T02:37:03.207Z,1.65
2018-11-02T02:39:31.408Z,3.25
2018-11-02T02:41:59.672Z,1.52
2018-11-02T02:44:27.858Z,1.55
2018-11-02T02:46:56.051Z,1.47
2018-11-02T02:49:24.606Z,2.10
2018-11-02T02:51:52.829Z,1.45
2018-11-02T02:54:21.060Z,1.90
2018-11-02T02:56:49.384Z,1.60
2018-11-02T02:59:17.593Z,1.98
2018-11-02T03:01:45.830Z,2.40
2018-11-02T03:04:14.040Z,2.42
2018-11-02T03:06:42.216Z,1.80
2018-11-02T03:09:10.422Z,1.90
2018-11-02T03:11:38.620Z,1.70
2018-11-02T03:14:06.899Z,2.08
2018-11-02T03:16:35.077Z,2.12
2018-11-02T03:19:04.562Z,1.90
2018-11-02T03:21:32.725Z,2.35
2018-11-02T03:24:00.976Z,1.90
2018-11-02T03:26:29.213Z,2.83
2018-11-02T03:28:57.479Z,2.25
2018-11-02T03:31:25.789Z,2.58
2018-11-02T03:33:54.023Z,3.10
2018-11-02T03:36:22.460Z,2.15
2018-11-02T03:38:50.700Z,1.60
2018-11-02T03:41:18.893Z,4.35
2018-11-02T03:43:48.342Z,2.15
2018-11-02T03:46:16.535Z,2.25
2018-11-02T03:48:44.728Z,2.70
2018-11-02T03:51:13.303Z,2.90
2018-11-02T03:53:41.529Z,3.55
2018-11-02T03:56:09.938Z,4.37
2018-11-02T03:58:38.199Z,4.62
2018-11-02T04:01:06.501Z,4.40
2018-11-02T04:03:34.713Z,2.45
2018-11-02T04:06:03.188Z,2.67
2018-11-02T04:08:31.396Z,3.17
2018-11-02T04:10:59.586Z,2.65
2018-11-02T04:13:27.880Z,3.05
2018-11-02T04:15:56.192Z,2.85
2018-11-02T04:18:24.392Z,2.50
2018-11-02T04:20:52.856Z,2.92
2018-11-02T04:23:21.233Z,2.58
2018-11-02T04:25:49.412Z,2.90
2018-11-02T04:28:17.596Z,3.02
2018-11-02T04:30:45.896Z,3.20
2018-11-02T04:33:14.028Z,3.60
2018-11-02T04:35:42.219Z,4.10
2018-11-02T04:38:10.439Z,5.28
2018-11-02T04:40:38.659Z,4.35
2018-11-02T04:43:07.412Z,3.75
2018-11-02T04:45:37.596Z,4.60
2018-11-02T04:48:07.485Z,5.65
2018-11-02T04:50:35.833Z,3.80
2018-11-02T04:53:04.452Z,3.35
2018-11-02T04:55:33.721Z,3.92
2018-11-02T04:58:02.025Z,3.90
2018-11-02T05:00:30.694Z,3.47
2018-11-02T05:02:59.066Z,4.03
2018-11-02T05:05:27.544Z,3.47
2018-11-02T05:07:55.752Z,3.70
2018-11-02T05:10:24.002Z,4.17
2018-11-02T05:12:52.304Z,4.55
2018-11-02T05:15:20.493Z,4.75
2018-11-02T05:17:48.729Z,5.97
2018-11-02T05:20:16.911Z,7.53
2018-11-02T05:22:45.394Z,9.33
2018-11-02T05:25:13.609Z,10.53
2018-11-02T05:27:41.808Z,11.90
2018-11-02T05:30:10.737Z,10.20
2018-11-02T05:32:39.317Z,11.80
2018-11-02T05:35:07.692Z,11.70
2018-11-02T05:37:35.902Z,10.90
2018-11-02T05:40:05.415Z,10.00
2018-11-02T05:42:33.638Z,11.48
2018-11-02T05:45:01.916Z,12.90
2018-11-02T05:47:30.349Z,10.95
2018-11-02T05:49:58.428Z,11.35
2018-11-02T05:52:26.667Z,11.05
2018-11-02T05:54:55.233Z,11.30
2018-11-02T05:57:23.460Z,11.20
2018-11-02T05:59:51.658Z,10.45
2018-11-02T06:02:19.867Z,9.68
2018-11-02T06:04:48.096Z,10.40
2018-11-02T06:07:16.344Z,9.68
2018-11-02T06:09:44.590Z,9.50
2018-11-02T06:12:13.283Z,11.43
2018-11-02T06:14:41.510Z,9.80
2018-11-02T06:17:09.767Z,9.85
2018-11-02T06:19:37.992Z,10.48
2018-11-02T06:22:06.257Z,9.90
2018-11-02T06:24:34.497Z,11.35
2018-11-02T06:27:03.220Z,14.23
2018-11-02T06:29:31.823Z,12.93
2018-11-02T06:32:00.083Z,12.18
2018-11-02T06:34:28.313Z,12.07
2018-11-02T06:36:56.789Z,12.07
2018-11-02T06:39:25.008Z,12.65
2018-11-02T06:41:53.223Z,12.55
2018-11-02T06:44:21.480Z,14.68
2018-11-02T06:46:49.735Z,12.00
2018-11-02T06:49:17.941Z,12.40
2018-11-02T06:51:46.206Z,13.78
2018-11-02T06:54:14.808Z,12.07
2018-11-02T06:56:43.051Z,11.88
2018-11-02T06:59:11.392Z,12.20
2018-11-02T07:01:39.509Z,11.40
2018-11-02T07:04:07.770Z,11.43
2018-11-02T07:06:35.938Z,13.40
2018-11-02T07:09:06.500Z,11.03
2018-11-02T07:11:34.738Z,12.30
2018-11-02T07:14:03.373Z,10.32
2018-11-02T07:16:31.576Z,12.07
2018-11-02T07:18:59.738Z,12.70
2018-11-02T07:21:27.894Z,12.03
2018-11-02T07:23:56.757Z,11.90
2018-11-02T07:26:25.011Z,11.73
2018-11-02T07:28:53.177Z,11.18
2018-11-02T07:31:22.339Z,10.38
2018-11-02T07:33:50.645Z,12.88
2018-11-02T07:36:18.820Z,10.65
2018-11-02T07:39:09.677Z,12.55
2018-11-02T07:41:37.848Z,13.22
2018-11-02T07:44:06.388Z,11.80
2018-11-02T07:46:34.637Z,9.63
2018-11-02T07:49:03.944Z,10.30
2018-11-02T07:51:32.151Z,13.15
2018-11-02T07:54:00.324Z,10.68
2018-11-02T07:56:28.496Z,10.72
2018-11-02T07:58:57.396Z,8.50
2018-11-02T08:01:25.857Z,8.45
2018-11-02T08:03:53.998Z,11.35
2018-11-02T08:06:22.235Z,14.93
2018-11-02T08:08:51.012Z,14.53
2018-11-02T08:11:19.660Z,8.88
2018-11-02T08:13:47.824Z,8.23
2018-11-02T08:16:16.021Z,6.00
2018-11-02T08:18:44.321Z,5.78
2018-11-02T08:21:12.427Z,5.22
2018-11-02T08:23:40.651Z,5.05
2018-11-02T08:26:08.891Z,4.78
2018-11-02T08:28:37.108Z,4.20
2018-11-02T08:31:05.709Z,3.98
2018-11-02T08:33:33.932Z,7.50
2018-11-02T08:36:03.059Z,4.25
2018-11-02T08:38:31.272Z,5.30
2018-11-02T08:40:59.486Z,5.55
2018-11-02T08:43:27.763Z,6.45
2018-11-02T08:45:55.940Z,8.18
2018-11-02T08:48:24.111Z,7.67
2018-11-02T08:50:52.462Z,7.85
2018-11-02T08:53:20.624Z,8.38
2018-11-02T08:55:48.780Z,8.48
2018-11-02T08:58:17.169Z,9.20
2018-11-02T09:00:45.264Z,7.50
2018-11-02T09:03:13.512Z,7.10
2018-11-02T09:05:41.728Z,6.47
2018-11-02T09:08:10.154Z,6.87
2018-11-02T09:10:41.300Z,6.53
2018-11-02T09:13:09.531Z,6.17
2018-11-02T09:15:37.819Z,9.95
2018-11-02T09:18:06.144Z,7.03
2018-11-02T09:20:34.400Z,5.83
2018-11-02T09:23:02.678Z,6.15
2018-11-02T09:25:30.976Z,6.03
2018-11-02T09:27:59.419Z,6.42
2018-11-02T09:30:27.532Z,6.17
2018-11-02T09:32:55.799Z,6.42
2018-11-02T09:35:24.115Z,7.10
2018-11-02T09:37:52.912Z,6.97
2018-11-02T09:40:21.309Z,6.55
2018-11-02T09:42:49.662Z,6.90
2018-11-02T09:45:17.807Z,5.72
2018-11-02T09:47:46.079Z,8.23
2018-11-02T09:50:14.408Z,7.12
2018-11-02T09:52:42.649Z,6.33
2018-11-02T09:55:13.411Z,3.90
2018-11-02T09:57:42.526Z,4.00
2018-11-02T10:00:11.804Z,3.80
2018-11-02T10:02:40.310Z,5.20
2018-11-02T10:05:09.629Z,5.33
2018-11-02T10:07:38.799Z,3.60
2018-11-02T10:10:08.947Z,4.17
2018-11-02T10:12:37.356Z,3.52
2018-11-02T10:15:08.528Z,4.00
2018-11-02T10:17:36.840Z,3.25
2018-11-02T10:20:06.232Z,3.70
2018-11-02T10:22:34.523Z,3.30
2018-11-02T10:25:02.778Z,4.20
2018-11-02T10:27:31.216Z,3.55
2018-11-02T10:30:00.756Z,5.42
2018-11-02T10:32:29.200Z,7.35
2018-11-02T10:34:58.470Z,3.20
2018-11-02T10:37:26.812Z,2.55
2018-11-02T10:39:55.175Z,9.20
2018-11-02T10:42:23.610Z,3.65
2018-11-02T10:44:52.092Z,3.95
2018-11-02T10:47:20.750Z,2.80
2018-11-02T10:49:48.975Z,2.42
2018-11-02T10:52:17.287Z,2.35
2018-11-02T10:54:45.678Z,4.35
2018-11-02T10:57:13.843Z,2.55
2018-11-02T10:59:42.172Z,2.83
2018-11-02T11:02:16.099Z,1.70
2018-11-02T11:04:44.341Z,1.87
2018-11-02T11:07:12.649Z,2.12
2018-11-02T11:09:40.932Z,2.40
2018-11-02T11:12:09.365Z,2.83
2018-11-02T11:14:37.837Z,2.50
2018-11-02T11:17:06.185Z,2.50
2018-11-02T11:19:34.425Z,4.75
2018-11-02T11:22:03.018Z,3.25
2018-11-02T11:24:31.308Z,3.67
2018-11-02T11:26:59.610Z,3.25
2018-11-02T11:29:27.898Z,5.15
2018-11-02T11:31:56.151Z,4.28
2018-11-02T11:34:24.417Z,5.80
2018-11-02T11:36:52.742Z,5.47
2018-11-02T11:39:20.986Z,5.85
2018-11-02T11:41:49.240Z,7.87
2018-11-02T11:44:17.573Z,6.17
2018-11-02T11:46:45.927Z,6.35
2018-11-02T11:49:14.303Z,4.70
2018-11-02T11:51:42.520Z,5.05
2018-11-02T11:54:10.848Z,5.08
2018-11-02T11:56:39.129Z,3.77
2018-11-02T11:59:08.083Z,3.98
2018-11-02T12:01:36.356Z,3.80
2018-11-02T12:04:05.185Z,3.33
2018-11-02T12:06:33.834Z,3.72
2018-11-02T12:09:02.217Z,3.05
2018-11-02T12:11:30.456Z,3.22
2018-11-02T12:13:59.123Z,3.75
2018-11-02T12:16:27.422Z,5.00
2018-11-02T12:18:55.780Z,4.80
2018-11-02T12:21:24.160Z,3.17
2018-11-02T12:23:52.395Z,4.10
2018-11-02T12:26:20.656Z,3.58
2018-11-02T12:28:48.981Z,3.50
2018-11-02T12:31:17.175Z,2.95
2018-11-02T12:33:45.728Z,2.92
2018-11-02T12:36:14.010Z,2.40
2018-11-02T12:38:42.220Z,3.08
2018-11-02T12:41:10.452Z,3.05
2018-11-02T12:43:38.931Z,3.40
2018-11-02T12:46:07.067Z,3.15
2018-11-02T12:48:35.434Z,2.05
2018-11-02T12:51:03.639Z,4.30
2018-11-02T12:53:31.873Z,4.03
2018-11-02T12:56:00.098Z,2.83
2018-11-02T12:58:28.385Z,4.05
2018-11-02T13:00:56.615Z,3.40
2018-11-02T13:03:24.903Z,4.47
2018-11-02T13:05:53.225Z,4.87
2018-11-02T13:08:21.496Z,3.35
2018-11-02T13:10:49.994Z,4.22
2018-11-02T13:13:18.273Z,6.22
2018-11-02T13:15:47.543Z,3.47
2018-11-02T13:18:19.252Z,7.75
2018-11-02T13:20:47.644Z,3.80
2018-11-02T13:23:15.942Z,4.40
2018-11-02T13:25:44.314Z,4.85
2018-11-02T13:28:12.408Z,4.10
2018-11-02T13:30:41.052Z,4.90
2018-11-02T13:33:09.147Z,4.22
2018-11-02T13:35:37.375Z,5.72
2018-11-02T13:38:05.733Z,6.78
2018-11-02T13:40:33.944Z,8.70
2018-11-02T13:43:02.324Z,9.40
2018-11-02T13:45:30.460Z,9.00
2018-11-02T13:47:58.732Z,8.05
2018-11-02T13:50:27.142Z,5.40
2018-11-02T13:52:55.259Z,5.25
2018-11-02T13:55:23.519Z,4.50
2018-11-02T13:57:51.780Z,4.53
2018-11-02T14:00:20.005Z,5.97
2018-11-02T14:02:48.260Z,7.17
2018-11-02T14:05:17.135Z,3.77
2018-11-02T14:07:45.379Z,4.65
2018-11-02T14:10:13.744Z,9.80
2018-11-02T14:12:42.176Z,10.30
2018-11-02T14:15:13.673Z,4.42
2018-11-02T14:17:42.401Z,5.67
2018-11-02T14:20:11.633Z,3.77
2018-11-02T14:22:40.099Z,5.28
2018-11-02T14:25:11.425Z,4.92
2018-11-02T14:27:39.698Z,6.92
2018-11-02T14:30:10.975Z,4.72
2018-11-02T14:32:39.252Z,7.83
2018-11-02T14:35:08.053Z,10.32
2018-11-02T14:37:36.626Z,9.70
2018-11-02T14:40:06.408Z,5.87
2018-11-02T14:42:34.639Z,4.90
2018-11-02T14:45:03.097Z,6.10
2018-11-02T14:47:31.756Z,7.83
2018-11-02T14:50:00.044Z,7.10
2018-11-02T14:52:28.311Z,8.18
2018-11-02T14:54:56.685Z,7.22
2018-11-02T14:57:24.946Z,7.83
2018-11-02T14:59:53.276Z,6.05
2018-11-02T15:02:21.497Z,6.83
2018-11-02T15:04:49.760Z,5.90
2018-11-02T15:07:17.982Z,6.75
2018-11-02T15:09:46.239Z,7.28
2018-11-02T15:12:14.600Z,7.37
2018-11-02T15:14:42.856Z,6.80
2018-11-02T15:17:11.143Z,9.83
2018-11-02T15:19:39.407Z,8.63
2018-11-02T15:22:07.753Z,5.62
2018-11-02T15:24:36.025Z,7.10
2018-11-02T15:27:04.688Z,6.08
2018-11-02T15:29:32.973Z,9.93
2018-11-02T15:32:01.767Z,6.28
2018-11-02T15:34:30.017Z,8.75
2018-11-02T15:36:58.283Z,7.08
2018-11-02T15:39:26.572Z,6.75
2018-11-02T15:41:54.841Z,36.70
2018-11-02T15:44:23.388Z,12.05
2018-11-02T15:46:51.640Z,7.90
2018-11-02T15:49:20.189Z,9.35
2018-11-02T15:51:48.456Z,9.35
2018-11-02T15:54:16.808Z,7.03
2018-11-02T15:56:45.371Z,7.83
2018-11-02T15:59:13.611Z,7.97
2018-11-02T16:01:41.896Z,7.67
2018-11-02T16:04:10.147Z,7.70
2018-11-02T16:06:38.519Z,8.00
2018-11-02T16:09:11.693Z,10.23
2018-11-02T16:11:39.962Z,8.88
2018-11-02T16:14:08.285Z,9.50
2018-11-02T16:16:36.594Z,11.25
2018-11-02T16:19:04.922Z,9.10
2018-11-02T16:21:33.433Z,7.05
2018-11-02T16:24:02.077Z,9.63
2018-11-02T16:26:30.308Z,5.60
2018-11-02T16:28:58.612Z,6.20
2018-11-02T16:31:26.848Z,6.70
2018-11-02T16:33:55.125Z,6.90
2018-11-02T16:36:23.716Z,6.37
2018-11-02T16:38:51.960Z,7.85
2018-11-02T16:41:20.233Z,7.03
2018-11-02T16:43:48.635Z,9.78
2018-11-02T16:46:16.741Z,10.08
2018-11-02T16:48:45.037Z,12.33
2018-11-02T16:51:13.292Z,21.65
2018-11-02T16:53:41.512Z,20.05
2018-11-02T16:56:10.052Z,23.95
2018-11-02T16:58:38.329Z,18.40
2018-11-02T17:01:06.703Z,20.50
2018-11-02T17:03:35.056Z,16.17
2018-11-02T17:06:04.667Z,11.38
2018-11-02T17:08:32.924Z,11.95
2018-11-02T17:11:01.525Z,8.30
2018-11-02T17:13:29.800Z,7.72
2018-11-02T17:15:58.157Z,9.10
2018-11-02T17:18:26.556Z,12.37
2018-11-02T17:20:54.849Z,10.50
2018-11-02T17:23:23.433Z,9.83
2018-11-02T17:25:51.748Z,8.88
2018-11-02T17:28:20.010Z,9.53
2018-11-02T17:30:48.300Z,9.28
2018-11-02T17:33:16.609Z,7.45
2018-11-02T17:35:44.911Z,9.00
2018-11-02T17:38:13.144Z,15.23
2018-11-02T17:40:41.385Z,11.97
2018-11-02T17:43:09.624Z,9.90
2018-11-02T17:45:37.888Z,9.20
2018-11-02T17:48:06.359Z,10.03
2018-11-02T17:50:34.551Z,9.78
2018-11-02T17:53:02.859Z,11.33
2018-11-02T17:55:31.239Z,10.70
2018-11-02T17:57:59.532Z,9.90
2018-11-02T18:00:27.812Z,10.10
2018-11-02T18:02:56.342Z,9.70
2018-11-02T18:05:24.581Z,9.35
2018-11-02T18:07:52.827Z,12.82
2018-11-02T18:10:21.132Z,9.95
2018-11-02T18:12:49.394Z,10.18
2018-11-02T18:15:17.636Z,9.83
2018-11-02T18:17:45.929Z,10.03
2018-11-02T18:20:15.151Z,11.88
2018-11-02T18:22:43.482Z,12.63
2018-11-02T18:25:12.675Z,11.43
2018-11-02T18:27:41.512Z,12.10
2018-11-02T18:30:11.360Z,17.15
2018-11-02T18:32:39.663Z,15.78
2018-11-02T18:35:08.618Z,13.70
2018-11-02T18:37:37.773Z,10.95
2018-11-02T18:40:08.967Z,14.98
2018-11-02T18:42:37.364Z,46.10
2018-11-02T18:45:08.543Z,64.32
2018-11-02T18:47:42.988Z,78.65
2018-11-02T18:50:11.839Z,31.70
2018-11-02T18:52:40.973Z,18.98
2018-11-02T18:55:09.413Z,17.55
2018-11-02T18:57:38.171Z,16.32
2018-11-02T19:00:08.154Z,14.85
2018-11-02T19:02:36.464Z,12.95
2018-11-02T19:05:09.257Z,13.32
2018-11-02T19:07:37.713Z,12.85
2018-11-02T19:10:06.733Z,14.58
2018-11-02T19:12:35.137Z,14.58
2018-11-02T19:15:03.568Z,13.68
2018-11-02T19:17:31.789Z,15.98
2018-11-02T19:20:00.140Z,41.18
2018-11-02T19:22:28.334Z,15.88
2018-11-02T19:24:56.911Z,14.90
2018-11-02T19:27:25.269Z,13.00
2018-11-02T19:29:53.475Z,11.95
2018-11-02T19:32:21.851Z,15.83
2018-11-02T19:34:50.696Z,13.05
2018-11-02T19:37:18.772Z,13.80
2018-11-02T19:39:46.988Z,12.50
2018-11-02T19:42:15.255Z,11.38
2018-11-02T19:44:43.514Z,11.85
2018-11-02T19:47:11.798Z,11.12
2018-11-02T19:49:40.080Z,13.05
2018-11-02T19:52:08.372Z,14.40
2018-11-02T19:54:36.675Z,14.50
2018-11-02T19:57:05.082Z,15.28
2018-11-02T19:59:33.355Z,16.10
2018-11-02T20:02:01.689Z,16.15
2018-11-02T20:04:29.963Z,15.08
2018-11-02T20:06:58.233Z,15.15
2018-11-02T20:09:26.598Z,14.58
2018-11-02T20:11:55.050Z,21.73
2018-11-02T20:14:23.288Z,16.42
2018-11-02T20:16:51.524Z,15.45
2018-11-02T20:19:19.876Z,13.75
2018-11-02T20:21:48.123Z,14.45
2018-11-02T20:24:16.433Z,15.63
2018-11-02T20:26:44.792Z,13.38
2018-11-02T20:29:13.036Z,14.38
2018-11-02T20:31:41.369Z,13.00
2018-11-02T20:34:09.709Z,13.28
2018-11-02T20:36:37.986Z,12.58
2018-11-02T20:39:09.866Z,12.68
2018-11-02T20:41:38.071Z,13.93
2018-11-02T20:44:06.484Z,13.58
2018-11-02T20:46:35.423Z,15.00
2018-11-02T20:49:03.982Z,13.93
2018-11-02T20:51:32.294Z,14.23
2018-11-02T20:54:00.861Z,14.05
2018-11-02T20:56:29.290Z,13.70
2018-11-02T20:58:57.724Z,15.93
2018-11-02T21:01:26.021Z,16.30
2018-11-02T21:03:55.051Z,15.72
2018-11-02T21:06:23.474Z,16.05
2018-11-02T21:08:52.038Z,13.75
2018-11-02T21:11:20.324Z,14.25
2018-11-02T21:13:48.609Z,15.38
2018-11-02T21:16:16.921Z,18.62
2018-11-02T21:18:45.530Z,14.87
2018-11-02T21:21:13.945Z,24.32
2018-11-02T21:23:42.757Z,22.58
2018-11-02T21:26:11.114Z,20.60
2018-11-02T21:28:40.164Z,17.80
2018-11-02T21:31:08.428Z,17.65
2018-11-02T21:33:36.857Z,18.20
2018-11-02T21:36:05.057Z,17.30
2018-11-02T21:38:34.621Z,19.80
2018-11-02T21:41:02.847Z,18.15
2018-11-02T21:43:31.468Z,16.30
2018-11-02T21:45:59.831Z,18.73
2018-11-02T21:48:28.189Z,17.27
2018-11-02T21:50:56.499Z,18.30
2018-11-02T21:53:24.794Z,16.73
2018-11-02T21:55:53.170Z,19.50
2018-11-02T21:58:22.640Z,18.12
2018-11-02T22:00:50.805Z,16.20
2018-11-02T22:03:19.132Z,15.70
2018-11-02T22:05:47.462Z,17.42
2018-11-02T22:08:15.703Z,16.35
2018-11-02T22:10:43.974Z,16.32
2018-11-02T22:13:12.244Z,22.85
2018-11-02T22:15:40.560Z,20.10
2018-11-02T22:18:09.110Z,21.25
2018-11-02T22:20:37.363Z,22.62
2018-11-02T22:23:05.742Z,19.87
2018-11-02T22:25:34.033Z,17.20
2018-11-02T22:28:02.278Z,16.05
2018-11-02T22:30:30.550Z,15.48
2018-11-02T22:32:58.787Z,17.25
2018-11-02T22:35:27.007Z,17.73
2018-11-02T22:37:55.245Z,19.55
2018-11-02T22:40:23.489Z,18.57
2018-11-02T22:42:52.012Z,20.97
2018-11-02T22:45:20.255Z,19.20
2018-11-02T22:47:54.447Z,21.77
2018-11-02T22:50:22.713Z,21.07
2018-11-02T22:52:50.968Z,20.62
2018-11-02T22:55:19.482Z,20.00
2018-11-02T22:57:47.696Z,20.02
2018-11-02T23:00:17.328Z,23.25
2018-11-02T23:02:46.774Z,20.85
2018-11-02T23:05:15.125Z,23.73
2018-11-02T23:07:43.940Z,21.48
2018-11-02T23:10:12.296Z,21.12
2018-11-02T23:12:41.180Z,22.13
2018-11-02T23:15:10.348Z,20.52
2018-11-02T23:17:38.681Z,23.32
2018-11-02T23:20:10.377Z,20.45
2018-11-02T23:22:38.600Z,25.02
2018-11-02T23:25:08.519Z,20.70
2018-11-02T23:27:36.846Z,20.30
2018-11-02T23:30:07.114Z,20.57
2018-11-02T23:32:35.335Z,22.07
2018-11-02T23:35:03.612Z,19.25
2018-11-02T23:37:32.168Z,22.07
2018-11-02T23:40:00.437Z,20.23
2018-11-02T23:42:29.026Z,18.00
2018-11-02T23:44:57.279Z,20.55
2018-11-02T23:47:25.449Z,20.90
2018-11-02T23:49:53.965Z,25.10
2018-11-02T23:52:22.824Z,21.05
2018-11-02T23:54:51.129Z,22.17
2018-11-02T23:57:19.429Z,19.37
2018-11-02T23:59:47.661Z,21.52
